Time;durP1;ratioP1;P1;durP2;ratioP2;P2;SDS_P1;SDS_P2;PMS_P1;PMS_P2;Temp;Humidity;BMP_temperature;BMP_pressure;BME280_temperature;BME280_humidity;BME280_pressure;Samples;Min_cycle;Max_cycle;Signal;HPM_P1;HPM_P2
2021/04/27 00:02:53;;;;;;;;;;;6.00;70.00;;;4.90;50.67;95011.94;10468753;28;1960;-85
2021/04/27 00:07:55;;;;;;;;;;;6.00;70.50;;;4.83;50.91;95001.47;10443090;28;2030;-87
2021/04/27 00:12:57;;;;;;;;;;;7.10;71.50;;;4.77;51.27;94994.53;10447474;28;1724;-87
2021/04/27 00:17:59;;;;;;;;;;;5.80;71.40;;;4.71;51.72;94984.06;10436778;28;1918;-87
2021/04/27 00:23:01;;;;;;;;;;;5.80;71.80;;;4.58;52.20;94980.81;10447893;28;1887;-86
2021/04/27 00:28:03;;;;;;;;;;;5.70;72.10;;;4.49;52.86;94977.00;10459872;28;1518;-86
2021/04/27 00:33:05;;;;;;;;;;;6.30;73.00;;;4.48;53.11;94970.09;10475904;28;2039;-85
2021/04/27 00:38:06;;;;;;;;;;;5.50;73.20;;;4.39;53.52;94960.97;10474997;28;2029;-84
2021/04/27 00:43:08;;;;;;;;;;;6.20;73.70;;;4.38;53.32;94956.69;10451690;28;1848;-82
2021/04/27 00:48:10;;;;;;;;;;;5.50;73.50;;;4.31;53.91;94953.44;10466325;28;1535;-85
2021/04/27 00:53:12;;;;;;;;;;;6.40;74.60;;;4.19;54.69;94958.94;10481842;28;2301;-87
2021/04/27 00:58:14;;;;;;;;;;;7.00;75.30;;;4.13;54.80;94959.13;10471525;28;1891;-84
2021/04/27 01:03:16;;;;;;;;;;;5.30;74.90;;;4.07;54.82;94951.13;10448838;28;1787;-85
2021/04/27 01:08:18;;;;;;;;;;;6.60;75.60;;;4.09;54.94;94956.19;10438844;28;1642;-86
2021/04/27 01:13:20;;;;;;;;;;;7.30;76.50;;;4.02;55.50;94950.28;10452438;28;2963;-86
2021/04/27 01:18:22;;;;;;;;;;;6.00;76.00;;;3.91;55.99;94948.59;10445961;28;2438;-86
2021/04/27 01:23:25;;;;;;;;;;;5.30;76.30;;;3.84;55.90;94932.84;10442003;28;2199;-83
2021/04/27 01:28:27;;;;;;;;;;;4.90;76.50;;;3.78;56.84;94939.16;10463249;28;2174;-84
2021/04/27 01:33:29;;;;;;;;;;;4.80;76.90;;;3.74;56.87;94941.50;10438932;28;1979;-85
2021/04/27 01:38:31;;;;;;;;;;;5.60;78.00;;;3.69;57.67;94938.81;10442946;28;2078;-87
2021/04/27 01:43:33;;;;;;;;;;;6.30;78.80;;;3.53;58.27;94945.00;10463902;28;2160;-85
2021/04/27 01:48:35;;;;;;;;;;;5.60;78.90;;;3.57;58.79;94948.78;10469334;28;2098;-87
2021/04/27 01:53:37;;;;;;;;;;;5.20;79.70;;;3.55;59.48;94945.56;10469727;28;2178;-84
2021/04/27 01:58:38;;;;;;;;;;;4.60;79.70;;;3.55;59.47;94950.88;10494773;28;1887;-87
2021/04/27 02:03:40;;;;;;;;;;;5.50;80.90;;;3.52;59.74;94946.88;10477447;28;2158;-86
2021/04/27 02:08:42;;;;;;;;;;;5.40;81.10;;;3.47;60.81;94938.03;10444603;28;1772;-86
2021/04/27 02:13:44;;;;;;;;;;;5.30;81.50;;;3.43;60.79;94948.34;10438034;28;2046;-85
2021/04/27 02:18:46;;;;;;;;;;;4.50;82.20;;;3.27;61.44;94940.47;10451777;28;1978;-85
2021/04/27 02:23:48;;;;;;;;;;;4.40;82.10;;;3.17;61.59;94936.63;10478710;28;1955;-86
2021/04/27 02:28:50;;;;;;;;;;;6.30;83.70;;;3.08;61.61;94940.78;10477875;28;1816;-86
2021/04/27 02:33:53;;;;;;;;;;;5.30;83.60;;;3.01;62.01;94936.69;10450302;28;2569;-84
2021/04/27 02:38:55;;;;;;;;;;;5.20;83.80;;;2.96;62.50;94932.91;10448428;28;2138;-86
2021/04/27 02:43:58;;;;;;;;;;;4.70;84.00;;;2.87;62.51;94934.41;10458564;28;2157;-85
2021/04/27 02:49:00;;;;;;;;;;;3.90;84.10;;;2.81;63.12;94929.28;10461249;28;2428;-86
2021/04/27 02:54:02;;;;;;;;;;;5.90;85.40;;;2.80;63.09;94925.00;10443540;28;2097;-86
2021/04/27 02:59:05;;;;;;;;;;;4.00;84.60;;;2.70;63.21;94915.06;10456063;28;2059;-86
2021/04/27 03:04:06;;;;;;;;;;;4.30;84.90;;;2.62;63.64;94916.28;10468731;28;2057;-85
2021/04/27 03:09:08;;;;;;;;;;;5.10;85.80;;;2.58;63.69;94904.56;10494958;28;1986;-86
2021/04/27 03:14:11;;;;;;;;;;;5.20;86.00;;;2.43;64.29;94899.03;10480027;28;2090;-86
2021/04/27 03:19:13;;;;;;;;;;;6.00;86.80;;;2.42;64.16;94905.41;10446152;28;1851;-85
2021/04/27 03:24:15;;;;;;;;;;;4.50;86.30;;;2.39;64.60;94892.59;10462627;28;2062;-86
2021/04/27 03:29:17;;;;;;;;;;;3.30;86.20;;;2.32;65.32;94898.09;10472590;28;1928;-86
2021/04/27 03:34:19;;;;;;;;;;;5.80;88.00;;;2.34;65.02;94897.84;10496272;28;2236;-83
2021/04/27 03:39:21;;;;;;;;;;;3.30;87.00;;;2.30;65.35;94894.88;10437709;28;1928;-85
2021/04/27 03:44:23;;;;;;;;;;;4.70;87.80;;;2.25;65.62;94894.81;10432563;28;1766;-83
2021/04/27 03:49:24;;;;;;;;;;;3.90;87.60;;;2.23;65.64;94888.13;10444786;28;2005;-86
2021/04/27 03:54:26;;;;;;;;;;;5.00;88.40;;;2.25;65.47;94894.00;10441366;28;1984;-84
2021/04/27 03:59:28;;;;;;;;;;;3.20;87.50;;;2.16;66.09;94897.06;10451343;28;2007;-86
2021/04/27 04:04:30;;;;;;;;;;;4.20;88.40;;;2.13;65.93;94883.47;10451155;28;2027;-85
2021/04/27 04:09:32;;;;;;;;;;;3.80;88.10;;;2.14;65.43;94888.53;10448221;28;2063;-86
2021/04/27 04:14:34;;;;;;;;;;;4.00;88.20;;;2.14;65.21;94893.84;10448623;28;2042;-86
2021/04/27 04:19:56;;;;;;;;;;;3.10;87.70;;;2.26;65.07;94893.75;10454858;28;2391;-84
2021/04/27 04:24:58;;;;;;;;;;;3.20;87.60;;;2.29;64.92;94901.22;10433141;28;1858;-85
2021/04/27 04:30:00;;;;;;;;;;;3.20;87.40;;;2.41;64.30;94888.66;10472393;28;2200;-84
2021/04/27 04:35:02;;;;;;;;;;;3.30;87.00;;;2.61;63.55;94890.00;10466322;28;2180;-84
2021/04/27 04:40:04;;;;;;;;;;;3.40;86.40;;;2.75;62.86;94895.75;10454056;28;4194;-85
2021/04/27 04:45:06;;;;;;;;;;;3.60;85.90;;;2.95;61.77;94891.50;10489228;28;2154;-85
2021/04/27 04:50:08;;;;;;;;;;;4.60;85.50;;;3.15;61.22;94893.59;10450147;28;2139;-86
2021/04/27 04:55:10;;;;;;;;;;;5.50;85.40;;;3.51;59.89;94888.66;10474169;28;2031;-85
2021/04/27 05:00:12;;;;;;;;;;;5.00;84.00;;;3.61;59.75;94887.94;10427181;28;2004;-86
2021/04/27 05:05:14;;;;;;;;;;;6.40;83.70;;;3.74;59.52;94888.34;10430541;28;1661;-86
2021/04/27 05:10:16;;;;;;;;;;;4.70;82.30;;;4.02;58.67;94886.47;10428515;28;2080;-84
2021/04/27 05:15:18;;;;;;;;;;;4.90;81.60;;;4.42;56.44;94885.16;10441083;28;2123;-84
2021/04/27 05:20:20;;;;;;;;;;;6.30;80.90;;;4.79;55.39;94883.25;10440865;28;2068;-85
2021/04/27 05:25:22;;;;;;;;;;;5.40;79.40;;;4.47;55.84;94883.31;10461377;28;1851;-86
2021/04/27 05:30:24;;;;;;;;;;;5.60;77.90;;;4.50;55.95;94876.69;10467130;28;1921;-86
2021/04/27 05:35:26;;;;;;;;;;;7.10;79.40;;;4.87;55.03;94882.75;10470046;28;2071;-83
2021/04/27 05:40:27;;;;;;;;;;;6.80;78.50;;;4.96;55.08;94880.38;10460824;28;1763;-86
2021/04/27 05:45:30;;;;;;;;;;;5.80;78.10;;;5.26;53.91;94873.56;10436769;28;1948;-85
2021/04/27 05:50:32;;;;;;;;;;;8.60;78.40;;;5.33;53.30;94874.91;10458136;28;2071;-85
2021/04/27 05:55:35;;;;;;;;;;;7.10;76.20;;;5.49;53.68;94878.44;10443379;28;1955;-86
2021/04/27 06:00:43;;;;;;;;;;;8.20;76.80;;;5.49;52.96;94874.97;10454519;28;1742;-86
2021/04/27 06:06:08;;;;;;;;;;;7.80;75.90;;;5.24;54.46;94881.81;10441247;28;2035;-85
2021/04/27 06:11:17;;;;;;;;;;;7.80;77.10;;;5.19;54.84;94884.47;10448252;28;2059;-84
2021/04/27 06:16:23;;;;;;;;;;;7.60;77.50;;;5.47;53.79;94874.41;10468696;28;1935;-86
2021/04/27 06:21:25;;;;;;;;;;;7.50;77.20;;;5.59;53.94;94878.44;10454086;28;1881;-83
2021/04/27 06:26:27;;;;;;;;;;;6.60;76.40;;;5.78;53.72;94864.59;10474819;28;1757;-86
2021/04/27 06:31:29;;;;;;;;;;;7.60;77.30;;;6.20;52.43;94859.03;10449789;28;2042;-86
2021/04/27 06:36:32;;;;;;;;;;;8.40;76.60;;;6.42;52.46;94864.88;10475030;28;1940;-87
2021/04/27 06:41:34;;;;;;;;;;;8.90;76.60;;;6.32;52.33;94866.78;10504436;28;1880;-89
2021/04/27 06:46:37;;;;;;;;;;;7.40;74.70;;;7.32;50.41;94851.53;10476530;28;1904;-87
2021/04/27 06:51:40;;;;;;;;;;;7.80;74.90;;;7.18;50.71;94855.03;10479195;28;1673;-88
2021/04/27 06:56:58;;;;;;;;;;;9.20;74.00;;;7.44;50.51;94847.69;10483089;28;1986;-88
2021/04/27 07:02:17;;;;;;;;;;;8.30;73.60;;;8.09;48.35;94846.47;10468246;28;1812;-87
2021/04/27 07:07:23;;;;;;;;;;;10.40;73.20;;;8.08;49.07;94844.88;10462581;28;1572;-90
2021/04/27 07:12:27;;;;;;;;;;;9.00;72.00;;;7.93;48.75;94849.53;10464360;28;2322;-89
2021/04/27 07:17:29;;;;;;;;;;;10.00;71.70;;;7.55;50.70;94843.91;10454451;28;2258;-88
2021/04/27 07:22:32;;;;;;;;;;;8.80;72.60;;;8.07;50.38;94837.91;10465492;28;1539;-90
2021/04/27 07:27:41;;;;;;;;;;;10.50;73.90;;;8.22;48.77;94836.19;10466409;28;2018;-89
2021/04/27 07:32:51;;;;;;;;;;;9.20;72.10;;;8.42;49.36;94836.03;10464075;28;2565;-91
2021/04/27 07:38:00;;;;;;;;;;;10.00;71.80;;;8.83;48.07;94827.56;10469536;28;2050;-87
2021/04/27 07:43:03;;;;;;;;;;;9.70;71.40;;;9.01;47.47;94826.03;10462900;28;1809;-89
2021/04/27 07:48:06;;;;;;;;;;;10.90;70.80;;;9.27;47.50;94824.63;10494882;28;2024;-88
2021/04/27 07:53:10;;;;;;;;;;;10.30;70.40;;;9.47;47.40;94816.28;10497956;28;1553;-88
2021/04/27 07:58:12;;;;;;;;;;;10.60;69.80;;;9.30;47.36;94821.38;10479891;28;2153;-84
2021/04/27 08:03:14;;;;;;;;;;;10.60;68.90;;;10.01;45.60;94814.19;10463604;28;2004;-88
2021/04/27 08:08:17;;;;;;;;;;;10.80;69.00;;;9.91;45.40;94811.63;10464441;28;2060;-86
2021/04/27 08:13:19;;;;;;;;;;;11.10;67.70;;;10.29;44.53;94810.50;10471507;28;1833;-86
2021/04/27 08:23:42;;;;;;;;;;;11.40;67.70;;;10.79;43.65;94807.19;10454521;28;1932;-87
2021/04/27 08:28:57;;;;;;;;;;;;;;;;;;;;;
2021/04/27 08:34:39;;;;;;;;;;;11.80;66.30;;;10.69;44.42;94808.19;10475967;28;1971;-90
2021/04/27 08:39:43;;;;;;;;;;;11.80;66.20;;;10.49;45.20;94809.34;10487382;28;2015;-89
2021/04/27 08:44:49;;;;;;;;;;;11.70;67.10;;;10.85;44.20;94808.69;10441792;28;2047;-86
2021/04/27 08:49:51;;;;;;;;;;;11.80;66.80;;;10.94;43.93;94801.53;10457724;28;1961;-85
2021/04/27 08:54:54;;;;;;;;;;;12.00;66.50;;;11.22;43.80;94796.13;10462113;28;2041;-85
2021/04/27 08:59:55;;;;;;;;;;;12.10;67.00;;;11.25;43.87;94795.50;10477438;28;1992;-84
2021/04/27 09:04:57;;;;;;;;;;;12.30;66.10;;;11.24;43.42;94791.25;10451393;28;2071;-83
2021/04/27 09:10:03;;;;;;;;;;;12.30;66.40;;;11.57;43.30;94786.47;10475649;28;1930;-85
2021/04/27 09:15:07;;;;;;;;;;;12.40;66.20;;;11.68;43.68;94778.97;10463114;28;1979;-86
2021/04/27 09:20:09;;;;;;;;;;;12.80;65.60;;;12.05;42.15;94775.16;10467167;28;1958;-83
2021/04/27 09:25:11;;;;;;;;;;;13.00;65.20;;;11.84;41.97;94774.88;10474398;28;1916;-83
2021/04/27 09:30:12;;;;;;;;;;;13.00;64.70;;;11.74;43.08;94769.69;10450388;28;1880;-85
2021/04/27 09:35:21;;;;;;;;;;;12.90;65.10;;;11.69;43.26;94767.91;10467896;28;2176;-85
2021/04/27 09:40:22;;;;;;;;;;;12.90;65.30;;;12.01;43.54;94768.78;10454275;28;2046;-86
2021/04/27 09:45:24;;;;;;;;;;;13.00;65.60;;;11.95;43.04;94754.66;10467980;28;2002;-85
2021/04/27 09:50:26;;;;;;;;;;;13.00;65.70;;;11.99;42.62;94760.25;10471468;28;1992;-81
2021/04/27 09:55:32;;;;;;;;;;;13.20;65.00;;;11.84;43.70;94764.09;10469746;28;1887;-84
2021/04/27 10:00:34;;;;;;;;;;;13.00;65.60;;;12.41;42.57;94762.41;10477480;28;1868;-82
2021/04/27 10:05:36;;;;;;;;;;;13.40;64.90;;;12.16;41.90;94755.75;10487051;28;1875;-82
2021/04/27 10:10:38;;;;;;;;;;;13.40;64.40;;;12.20;43.05;94744.34;10458036;28;1649;-83
2021/04/27 10:15:40;;;;;;;;;;;13.30;64.80;;;12.15;42.69;94746.09;10465317;28;1996;-84
2021/04/27 10:20:42;;;;;;;;;;;13.20;65.00;;;12.54;41.88;94738.38;10455473;28;1974;-86
2021/04/27 10:25:45;;;;;;;;;;;13.40;65.10;;;12.28;41.92;94733.66;10465828;28;1992;-85
2021/04/27 10:30:47;;;;;;;;;;;13.60;63.80;;;12.69;41.70;94729.84;10459839;28;2015;-86
2021/04/27 10:35:48;;;;;;;;;;;13.60;64.70;;;12.00;43.39;94726.81;10473499;28;1971;-87
2021/04/27 10:40:51;;;;;;;;;;;13.30;64.70;;;12.45;42.20;94725.63;10476216;28;1996;-85
2021/04/27 10:45:52;;;;;;;;;;;13.30;65.10;;;12.87;41.93;94715.31;10470042;28;2016;-85
2021/04/27 10:50:54;;;;;;;;;;;13.80;64.40;;;12.92;40.96;94712.47;10459318;28;1917;-83
2021/04/27 10:55:57;;;;;;;;;;;14.00;63.10;;;13.13;40.50;94698.38;10472773;28;2020;-84
2021/04/27 11:00:59;;;;;;;;;;;14.10;63.50;;;13.23;40.56;94700.78;10479959;28;2023;-86
2021/04/27 11:06:01;;;;;;;;;;;14.20;63.50;;;13.47;40.03;94701.13;10483965;28;2135;-85
2021/04/27 11:11:03;;;;;;;;;;;14.30;63.30;;;13.47;39.60;94694.94;10489748;28;1542;-84
2021/04/27 11:16:05;;;;;;;;;;;14.70;61.80;;;13.39;39.68;94693.03;10484003;28;1963;-85
2021/04/27 11:21:07;;;;;;;;;;;14.50;62.40;;;13.31;39.76;94677.66;10482986;28;1958;-84
2021/04/27 11:26:09;;;;;;;;;;;14.40;62.40;;;13.51;39.49;94683.19;10461312;28;1900;-84
2021/04/27 11:31:11;;;;;;;;;;;14.50;62.40;;;14.00;39.48;94675.66;10467974;28;2017;-85
2021/04/27 11:36:14;;;;;;;;;;;14.70;62.60;;;13.89;39.14;94669.00;10477069;28;1911;-84
2021/04/27 11:41:16;;;;;;;;;;;15.00;61.30;;;13.64;39.48;94676.03;10503646;28;2018;-81
2021/04/27 11:46:21;;;;;;;;;;;14.90;61.40;;;13.81;39.15;94667.13;10491177;28;2129;-84
2021/04/27 11:51:23;;;;;;;;;;;14.70;62.20;;;13.79;39.76;94672.81;10496133;28;2171;-85
2021/04/27 11:56:25;;;;;;;;;;;14.80;61.90;;;13.79;39.61;94663.94;10500301;28;1959;-83
2021/04/27 12:01:26;;;;;;;;;;;14.80;61.80;;;14.06;39.20;94673.59;10474505;28;1917;-86
2021/04/27 12:06:31;;;;;;;;;;;14.80;61.70;;;13.92;38.86;94664.88;10481280;28;1889;-84
2021/04/27 12:11:33;;;;;;;;;;;15.00;61.30;;;14.25;38.79;94665.09;10471752;28;2008;-86
2021/04/27 12:16:35;;;;;;;;;;;15.10;61.60;;;14.32;38.35;94657.28;10461890;28;2133;-85
2021/04/27 12:21:37;;;;;;;;;;;15.30;61.00;;;14.24;38.54;94652.69;10479515;28;1625;-85
2021/04/27 12:26:39;;;;;;;;;;;15.20;60.70;;;14.64;38.12;94641.59;10449840;28;1998;-83
2021/04/27 12:31:41;;;;;;;;;;;15.50;60.50;;;14.87;37.76;94642.88;10449145;28;2028;-87
2021/04/27 12:36:46;;;;;;;;;;;15.80;60.00;;;14.99;37.28;94637.53;10476611;28;2096;-87
2021/04/27 12:41:48;;;;;;;;;;;15.90;59.80;;;14.83;36.96;94636.56;10458850;28;2077;-87
2021/04/27 12:46:51;;;;;;;;;;;16.00;58.90;;;14.72;37.29;94630.72;10445329;28;2014;-85
2021/04/27 12:51:53;;;;;;;;;;;15.70;59.70;;;15.13;36.94;94624.53;10488021;28;1751;-87
2021/04/27 12:56:55;;;;;;;;;;;15.90;59.80;;;14.73;37.48;94636.91;10479950;28;1910;-86
2021/04/27 13:01:57;;;;;;;;;;;15.80;59.20;;;14.77;37.18;94616.22;10471160;28;1885;-88
2021/04/27 13:07:00;;;;;;;;;;;15.80;59.20;;;15.21;36.48;94619.41;10484796;28;2000;-86
2021/04/27 13:12:04;;;;;;;;;;;16.10;59.10;;;14.89;36.77;94610.88;10459461;28;2053;-86
2021/04/27 13:17:06;;;;;;;;;;;16.10;58.30;;;15.24;36.89;94614.13;10475863;28;1969;-83
2021/04/27 13:22:08;;;;;;;;;;;16.10;59.00;;;14.83;36.71;94609.50;10474368;28;2297;-85
2021/04/27 13:27:11;;;;;;;;;;;16.10;57.90;;;14.93;36.60;94600.19;10462720;28;1990;-84
2021/04/27 13:32:12;;;;;;;;;;;16.00;58.30;;;15.12;36.52;94597.81;10450094;28;2012;-84
2021/04/27 13:37:14;;;;;;;;;;;16.10;58.50;;;15.37;35.76;94598.72;10442766;28;1959;-84
2021/04/27 13:42:16;;;;;;;;;;;16.30;57.80;;;15.22;36.04;94583.88;10457031;28;2112;-83
2021/04/27 13:47:18;;;;;;;;;;;16.30;57.70;;;15.42;35.65;94584.97;10430421;28;2003;-84
2021/04/27 13:52:20;;;;;;;;;;;16.30;57.80;;;14.99;35.68;94582.63;10444596;28;2110;-85
2021/04/27 13:57:21;;;;;;;;;;;16.20;57.20;;;14.79;36.17;94581.50;10454742;28;1961;-82
2021/04/27 14:02:23;;;;;;;;;;;16.00;57.70;;;15.35;35.78;94571.97;10439452;28;1777;-84
2021/04/27 14:07:27;;;;;;;;;;;16.10;58.00;;;15.74;34.93;94578.00;10454547;28;2019;-84
2021/04/27 14:12:29;;;;;;;;;;;16.60;57.10;;;15.81;34.84;94566.59;10458499;28;1957;-85
2021/04/27 14:22:48;;;;;;;;;;;16.60;57.30;;;15.48;35.49;94558.50;10474162;28;2009;-87
2021/04/27 14:27:53;;;;;;;;;;;16.50;57.20;;;15.48;35.18;94553.06;10493087;28;1912;-86
2021/04/27 14:32:56;;;;;;;;;;;16.50;56.80;;;15.47;35.19;94551.50;10474484;28;2104;-86
2021/04/27 14:37:58;;;;;;;;;;;16.50;56.80;;;15.43;35.09;94545.94;10476953;28;2050;-85
2021/04/27 14:43:00;;;;;;;;;;;16.50;56.50;;;15.75;34.93;94546.28;10484091;28;2036;-87
2021/04/27 14:48:02;;;;;;;;;;;16.70;56.70;;;15.54;34.83;94547.09;10498919;28;1910;-85
2021/04/27 14:53:04;;;;;;;;;;;16.60;56.10;;;15.36;35.38;94534.88;10473004;28;1603;-86
2021/04/27 14:58:06;;;;;;;;;;;16.40;56.60;;;15.31;35.49;94540.47;10494027;28;1899;-85
2021/04/27 15:03:08;;;;;;;;;;;16.40;56.70;;;15.76;35.08;94537.03;10481530;28;1948;-85
2021/04/27 15:08:13;;;;;;;;;;;16.60;56.90;;;15.74;34.90;94533.88;10485102;28;1894;-86
2021/04/27 15:13:16;;;;;;;;;;;16.60;56.60;;;15.80;34.19;94532.53;10483242;28;1908;-85
2021/04/27 15:18:18;;;;;;;;;;;16.80;55.90;;;15.92;34.63;94527.13;10468469;28;2052;-82
2021/04/27 15:23:21;;;;;;;;;;;16.80;56.00;;;15.58;34.80;94520.91;10462192;28;2241;-84
2021/04/27 15:28:23;;;;;;;;;;;16.60;56.10;;;15.50;34.93;94524.50;10489782;28;2020;-84
2021/04/27 15:33:25;;;;;;;;;;;16.60;56.10;;;15.54;35.22;94521.94;10472484;28;2272;-86
2021/04/27 15:38:27;;;;;;;;;;;16.60;56.30;;;15.65;34.74;94523.13;10473582;28;2307;-86
2021/04/27 15:43:29;;;;;;;;;;;16.60;56.30;;;15.46;34.87;94518.22;10486246;28;2181;-86
2021/04/27 15:48:32;;;;;;;;;;;16.50;56.40;;;15.29;35.41;94519.16;10459080;28;2149;-82
2021/04/27 15:53:35;;;;;;;;;;;16.20;56.60;;;15.37;35.40;94509.38;10462963;28;2123;-85
2021/04/27 16:03:56;;;;;;;;;;;16.20;56.90;;;15.18;35.40;94500.97;10447903;28;1872;-86
2021/04/27 16:08:59;;;;;;;;;;;16.20;56.70;;;15.07;35.76;94506.78;10469027;28;2070;-86
2021/04/27 16:14:00;;;;;;;;;;;16.10;56.80;;;14.90;35.81;94498.81;10453045;28;2147;-85
2021/04/27 16:19:03;;;;;;;;;;;15.90;57.10;;;14.92;35.87;94487.66;10478114;28;1956;-82
2021/04/27 16:24:04;;;;;;;;;;;15.90;57.40;;;14.84;36.13;94498.25;10437984;28;1931;-84
2021/04/27 16:29:06;;;;;;;;;;;15.90;57.20;;;14.68;36.14;94482.94;10464379;28;2000;-84
2021/04/27 16:34:08;;;;;;;;;;;15.70;57.50;;;14.64;36.34;94487.44;10465206;28;2066;-84
2021/04/27 16:39:10;;;;;;;;;;;15.60;57.80;;;14.61;37.04;94488.88;10458320;28;1926;-82
2021/04/27 16:44:11;;;;;;;;;;;15.60;58.10;;;14.57;36.55;94494.16;10441248;28;1913;-86
2021/04/27 16:49:13;;;;;;;;;;;15.60;58.00;;;14.44;36.85;94489.78;10450733;28;1793;-86
2021/04/27 16:54:16;;;;;;;;;;;15.50;58.10;;;14.33;36.85;94494.75;10454535;28;1956;-83
2021/04/27 16:59:17;;;;;;;;;;;15.30;58.30;;;14.32;37.17;94497.81;10444166;28;1886;-82
2021/04/27 17:04:19;;;;;;;;;;;15.30;58.70;;;14.24;37.84;94498.63;10441413;28;2001;-83
2021/04/27 17:09:21;;;;;;;;;;;15.20;59.20;;;14.18;37.44;94502.63;10463805;28;1967;-84
2021/04/27 17:14:23;;;;;;;;;;;15.20;59.10;;;14.04;37.80;94511.78;10442102;28;1929;-84
2021/04/27 17:19:25;;;;;;;;;;;15.10;59.20;;;13.99;38.36;94498.44;10461479;28;1963;-83
2021/04/27 17:24:27;;;;;;;;;;;14.90;59.40;;;13.99;38.49;94500.34;10463360;28;1976;-82
2021/04/27 17:29:31;;;;;;;;;;;14.90;59.80;;;13.90;38.36;94496.91;10456739;28;1843;-85
2021/04/27 17:34:33;;;;;;;;;;;14.90;59.90;;;13.83;38.84;94512.84;10455848;28;1852;-83
2021/04/27 17:39:35;;;;;;;;;;;14.80;60.20;;;13.73;39.09;94508.56;10442698;28;2208;-82
2021/04/27 17:44:37;;;;;;;;;;;14.80;60.30;;;13.62;39.06;94510.06;10462827;28;1347;-83
2021/04/27 17:49:39;;;;;;;;;;;14.60;60.30;;;13.46;39.52;94513.28;10483904;28;1439;-85
2021/04/27 17:54:41;;;;;;;;;;;14.50;61.20;;;13.32;40.93;94520.78;10457264;28;1478;-84
2021/04/27 17:59:43;;;;;;;;;;;14.40;61.90;;;13.26;40.83;94516.66;10481165;28;1914;-83
2021/04/27 18:04:44;;;;;;;;;;;14.20;62.10;;;13.15;41.19;94531.56;10442582;28;1635;-84
2021/04/27 18:09:46;;;;;;;;;;;14.20;62.40;;;13.04;41.37;94530.31;10467704;28;1343;-85
2021/04/27 18:14:48;;;;;;;;;;;14.00;62.70;;;12.87;42.37;94537.31;10469531;28;1467;-85
2021/04/27 18:19:51;;;;;;;;;;;13.90;63.00;;;12.78;42.25;94536.50;10468718;28;1984;-84
2021/04/27 18:24:57;;;;;;;;;;;13.80;63.30;;;12.67;42.75;94529.88;10457204;28;1512;-84
2021/04/27 18:29:59;;;;;;;;;;;13.70;63.80;;;12.51;42.86;94534.13;10489161;28;1584;-84
2021/04/27 18:35:01;;;;;;;;;;;13.60;64.40;;;12.29;43.93;94532.34;10460438;28;1910;-85
2021/04/27 18:40:03;;;;;;;;;;;13.40;65.00;;;12.20;44.00;94540.41;10459549;28;1237;-83
2021/04/27 18:45:05;;;;;;;;;;;13.30;65.40;;;12.14;44.73;94541.66;10458131;28;2022;-86
2021/04/27 18:50:07;;;;;;;;;;;13.20;65.70;;;11.95;45.12;94543.81;10461939;28;1447;-85
2021/04/27 18:55:09;;;;;;;;;;;13.00;66.00;;;11.82;45.08;94557.06;10465560;28;1910;-84
2021/04/27 19:00:11;;;;;;;;;;;12.90;66.70;;;11.64;46.62;94558.88;10468621;28;1506;-83
2021/04/27 19:05:13;;;;;;;;;;;12.70;67.50;;;11.54;46.74;94561.03;10453951;28;2008;-83
2021/04/27 19:10:14;;;;;;;;;;;12.60;67.90;;;11.50;46.72;94570.81;10439958;28;1627;-83
2021/04/27 19:15:19;;;;;;;;;;;12.50;68.30;;;11.48;47.04;94578.41;10442159;28;1949;-84
2021/04/27 19:20:20;;;;;;;;;;;12.50;68.80;;;11.32;47.31;94581.50;10440943;28;1741;-84
2021/04/27 19:25:22;;;;;;;;;;;12.40;68.90;;;11.12;47.97;94581.97;10459303;28;1646;-85
2021/04/27 19:30:24;;;;;;;;;;;12.30;69.60;;;11.03;48.54;94586.50;10487876;28;1339;-86
2021/04/27 19:35:27;;;;;;;;;;;12.10;70.00;;;10.82;49.36;94586.97;10475162;28;2098;-85
2021/04/27 19:40:30;;;;;;;;;;;12.00;70.50;;;10.75;49.53;94583.09;10461808;28;1662;-87
2021/04/27 19:45:32;;;;;;;;;;;11.80;71.00;;;10.75;49.84;94583.09;10476256;28;1495;-86
2021/04/27 19:50:34;;;;;;;;;;;11.80;71.40;;;10.62;49.84;94581.22;10468826;28;1562;-85
2021/04/27 19:55:36;;;;;;;;;;;11.70;71.80;;;10.47;50.98;94587.75;10470317;28;1985;-86
2021/04/27 20:00:38;;;;;;;;;;;11.60;72.40;;;10.33;51.08;94582.41;10466344;28;1708;-84
2021/04/27 20:05:40;;;;;;;;;;;11.50;72.60;;;10.28;51.43;94594.03;10451359;28;1984;-84
2021/04/27 20:10:42;;;;;;;;;;;11.40;72.90;;;10.33;51.17;94592.34;10461236;28;1589;-86
2021/04/27 20:15:44;;;;;;;;;;;11.30;73.20;;;10.21;51.48;94590.94;10485291;28;1894;-84
2021/04/27 20:20:46;;;;;;;;;;;11.30;73.40;;;9.99;52.39;94585.47;10458218;28;1801;-84
2021/04/27 20:25:49;;;;;;;;;;;11.10;74.00;;;9.87;52.91;94593.22;10438763;28;1569;-81
2021/04/27 20:30:51;;;;;;;;;;;11.00;74.40;;;9.71;53.41;94593.50;10453991;28;1366;-86
2021/04/27 20:35:53;;;;;;;;;;;10.80;74.60;;;9.73;53.08;94598.56;10434489;28;1996;-85
2021/04/27 20:40:55;;;;;;;;;;;10.80;75.00;;;9.71;53.43;94598.06;10432639;28;1361;-85
2021/04/27 20:45:57;;;;;;;;;;;10.70;75.40;;;9.63;53.75;94593.41;10454190;28;1606;-84
2021/04/27 20:50:59;;;;;;;;;;;10.70;75.70;;;9.54;54.16;94601.31;10457637;28;1338;-84
2021/04/27 20:56:01;;;;;;;;;;;10.60;76.10;;;9.49;54.68;94612.16;10433648;28;2027;-83
2021/04/27 21:01:02;;;;;;;;;;;10.60;76.50;;;9.36;55.27;94599.50;10442093;28;2013;-84
2021/04/27 21:06:04;;;;;;;;;;;10.50;77.00;;;9.34;55.40;94604.34;10452026;28;1896;-84
2021/04/27 21:11:06;;;;;;;;;;;10.40;77.20;;;9.21;56.43;94617.41;10443954;28;2048;-85
2021/04/27 21:16:08;;;;;;;;;;;10.30;77.80;;;9.10;55.73;94604.50;10427636;28;2024;-86
2021/04/27 21:21:10;;;;;;;;;;;10.20;77.90;;;9.03;56.41;94610.19;10450154;28;2047;-85
2021/04/27 21:26:12;;;;;;;;;;;10.10;78.50;;;8.94;56.93;94610.06;10436366;28;1937;-85
2021/04/27 21:31:14;;;;;;;;;;;10.00;78.60;;;8.91;57.18;94609.88;10474978;28;1872;-83
2021/04/27 21:36:16;;;;;;;;;;;10.00;79.30;;;8.89;56.90;94612.81;10429899;28;2029;-82
2021/04/27 21:41:18;;;;;;;;;;;9.90;79.70;;;8.78;58.07;94614.09;10453768;28;1992;-83
2021/04/27 21:46:19;;;;;;;;;;;9.90;80.10;;;8.67;58.12;94612.63;10452294;28;2011;-83
2021/04/27 21:51:21;;;;;;;;;;;10.50;80.70;;;8.52;58.85;94626.22;10458059;28;2054;-85
2021/04/27 21:56:23;;;;;;;;;;;9.70;80.80;;;8.42;59.62;94613.75;10441405;28;1922;-86
2021/04/27 22:01:25;;;;;;;;;;;10.30;81.60;;;8.35;59.11;94613.28;10454396;28;1851;-85
2021/04/27 22:06:27;;;;;;;;;;;9.50;81.70;;;8.32;60.11;94611.16;10436352;28;1825;-85
2021/04/27 22:11:29;;;;;;;;;;;9.70;82.20;;;8.27;60.24;94613.91;10461524;28;2021;-86
2021/04/27 22:16:31;;;;;;;;;;;9.40;82.20;;;8.22;60.00;94614.00;10450043;28;1985;-85
2021/04/27 22:21:33;;;;;;;;;;;9.30;82.80;;;8.10;60.99;94609.03;10446136;28;1934;-85
2021/04/27 22:26:37;;;;;;;;;;;9.80;83.40;;;8.06;61.13;94616.84;10433958;28;1940;-85
2021/04/27 22:31:39;;;;;;;;;;;9.10;83.50;;;7.99;61.68;94618.28;10458095;28;2030;-85
2021/04/27 22:36:41;;;;;;;;;;;10.40;84.50;;;7.89;61.74;94618.38;10436860;28;1899;-84
2021/04/27 22:41:42;;;;;;;;;;;9.00;84.00;;;7.79;61.76;94621.97;10449170;28;1922;-84
2021/04/27 22:46:44;;;;;;;;;;;8.90;84.60;;;7.77;62.50;94624.13;10462301;28;1919;-85
2021/04/27 22:51:46;;;;;;;;;;;10.20;85.60;;;7.67;62.85;94627.69;10489062;28;2012;-84
2021/04/27 22:56:48;;;;;;;;;;;9.30;85.60;;;7.64;62.68;94622.13;10473247;28;1882;-84
2021/04/27 23:01:50;;;;;;;;;;;8.70;85.50;;;7.61;63.02;94636.06;10487350;28;1966;-85
2021/04/27 23:06:52;;;;;;;;;;;8.70;85.80;;;7.47;63.37;94638.59;10483926;28;1677;-84
2021/04/27 23:11:54;;;;;;;;;;;8.60;86.00;;;7.42;64.11;94635.97;10473338;28;2083;-84
2021/04/27 23:16:56;;;;;;;;;;;8.50;86.60;;;7.35;64.27;94638.16;10466493;28;2076;-86
2021/04/27 23:22:00;;;;;;;;;;;9.80;87.50;;;7.23;64.32;94641.19;10467431;28;1998;-85
2021/04/27 23:27:02;;;;;;;;;;;8.40;87.10;;;7.21;64.85;94632.69;10455889;28;2161;-86
2021/04/27 23:32:04;;;;;;;;;;;8.70;87.70;;;7.14;64.63;94629.53;10438476;28;1864;-86
2021/04/27 23:37:06;;;;;;;;;;;9.70;88.60;;;7.03;65.53;94629.59;10459110;28;1979;-86
2021/04/27 23:42:07;;;;;;;;;;;8.10;88.40;;;7.01;65.44;94637.09;10440451;28;1454;-85
2021/04/27 23:47:09;;;;;;;;;;;8.10;88.60;;;6.94;65.65;94631.28;10440279;28;2030;-85